sensor_id;sensor_type;location;lat;lon;timestamp;temperature;humidity
22337;DHT22;14992;50.844;4.418;2023-07-24T00:00:17;19.70;99.90
22337;DHT22;14992;50.844;4.418;2023-07-24T00:02:47;19.70;99.90
22337;DHT22;14992;50.844;4.418;2023-07-24T00:05:16;19.80;99.90
22337;DHT22;14992;50.844;4.418;2023-07-24T00:07:47;19.90;99.90
22337;DHT22;14992;50.844;4.418;2023-07-24T00:10:17;20.00;99.90
22337;DHT22;14992;50.844;4.418;2023-07-24T00:12:46;20.00;99.90
22337;DHT22;14992;50.844;4.418;2023-07-24T00:15:17;20.10;99.90
22337;DHT22;14992;50.844;4.418;2023-07-24T00:17:46;20.10;99.90
22337;DHT22;14992;50.844;4.418;2023-07-24T00:20:15;20.10;99.90
22337;DHT22;14992;50.844;4.418;2023-07-24T00:22:44;20.10;99.90
22337;DHT22;14992;50.844;4.418;2023-07-24T00:25:13;20.10;99.90
22337;DHT22;14992;50.844;4.418;2023-07-24T00:27:44;20.10;99.90
22337;DHT22;14992;50.844;4.418;2023-07-24T00:30:13;20.20;99.90
22337;DHT22;14992;50.844;4.418;2023-07-24T00:32:42;20.20;99.90
22337;DHT22;14992;50.844;4.418;2023-07-24T00:35:11;20.10;99.90
22337;DHT22;14992;50.844;4.418;2023-07-24T00:37:40;20.20;99.90
22337;DHT22;14992;50.844;4.418;2023-07-24T00:40:10;20.20;99.90
22337;DHT22;14992;50.844;4.418;2023-07-24T00:42:40;20.20;99.90
22337;DHT22;14992;50.844;4.418;2023-07-24T00:45:13;20.20;99.90
22337;DHT22;14992;50.844;4.418;2023-07-24T00:47:43;20.10;99.90
22337;DHT22;14992;50.844;4.418;2023-07-24T00:50:12;20.10;99.90
22337;DHT22;14992;50.844;4.418;2023-07-24T00:52:42;20.20;99.90
22337;DHT22;14992;50.844;4.418;2023-07-24T00:55:13;20.30;99.90
22337;DHT22;14992;50.844;4.418;2023-07-24T00:57:44;20.20;99.90
22337;DHT22;14992;50.844;4.418;2023-07-24T01:00:15;20.10;99.90
22337;DHT22;14992;50.844;4.418;2023-07-24T01:02:44;20.10;99.90
22337;DHT22;14992;50.844;4.418;2023-07-24T01:05:13;20.20;99.90
22337;DHT22;14992;50.844;4.418;2023-07-24T01:07:43;20.20;99.90
22337;DHT22;14992;50.844;4.418;2023-07-24T01:10:12;20.20;99.90
22337;DHT22;14992;50.844;4.418;2023-07-24T01:12:47;20.20;99.90
22337;DHT22;14992;50.844;4.418;2023-07-24T01:15:24;20.20;99.90
22337;DHT22;14992;50.844;4.418;2023-07-24T01:17:57;20.10;99.90
22337;DHT22;14992;50.844;4.418;2023-07-24T01:20:29;20.10;99.90
22337;DHT22;14992;50.844;4.418;2023-07-24T01:23:11;19.90;99.90
22337;DHT22;14992;50.844;4.418;2023-07-24T01:25:55;19.90;99.90
22337;DHT22;14992;50.844;4.418;2023-07-24T01:28:26;19.90;99.90
22337;DHT22;14992;50.844;4.418;2023-07-24T01:30:55;19.70;99.90
22337;DHT22;14992;50.844;4.418;2023-07-24T01:33:25;19.80;99.90
22337;DHT22;14992;50.844;4.418;2023-07-24T01:35:57;19.80;99.90
22337;DHT22;14992;50.844;4.418;2023-07-24T01:38:26;19.70;99.90
22337;DHT22;14992;50.844;4.418;2023-07-24T01:40:57;19.50;99.90
22337;DHT22;14992;50.844;4.418;2023-07-24T01:43:28;19.50;99.90
22337;DHT22;14992;50.844;4.418;2023-07-24T01:45:58;19.50;99.90
22337;DHT22;14992;50.844;4.418;2023-07-24T01:48:27;19.40;99.90
22337;DHT22;14992;50.844;4.418;2023-07-24T01:50:56;19.30;99.90
22337;DHT22;14992;50.844;4.418;2023-07-24T01:53:24;19.30;99.90
22337;DHT22;14992;50.844;4.418;2023-07-24T01:55:53;19.30;99.90
22337;DHT22;14992;50.844;4.418;2023-07-24T01:58:23;19.20;99.90
22337;DHT22;14992;50.844;4.418;2023-07-24T02:00:57;19.10;99.90
22337;DHT22;14992;50.844;4.418;2023-07-24T02:03:26;18.90;99.90
22337;DHT22;14992;50.844;4.418;2023-07-24T02:05:55;19.00;99.90
22337;DHT22;14992;50.844;4.418;2023-07-24T02:08:24;19.00;99.90
22337;DHT22;14992;50.844;4.418;2023-07-24T02:10:53;19.10;99.90
22337;DHT22;14992;50.844;4.418;2023-07-24T02:13:23;19.00;99.90
22337;DHT22;14992;50.844;4.418;2023-07-24T02:15:52;19.00;99.90
22337;DHT22;14992;50.844;4.418;2023-07-24T02:18:21;19.00;99.90
22337;DHT22;14992;50.844;4.418;2023-07-24T02:20:51;19.10;99.90
22337;DHT22;14992;50.844;4.418;2023-07-24T02:23:21;19.10;99.90
22337;DHT22;14992;50.844;4.418;2023-07-24T02:25:51;19.20;99.90
22337;DHT22;14992;50.844;4.418;2023-07-24T02:28:20;19.20;99.90
22337;DHT22;14992;50.844;4.418;2023-07-24T02:30:53;19.30;99.90
22337;DHT22;14992;50.844;4.418;2023-07-24T02:33:26;19.40;99.90
22337;DHT22;14992;50.844;4.418;2023-07-24T02:35:55;19.40;99.90
22337;DHT22;14992;50.844;4.418;2023-07-24T02:38:24;19.40;99.90
22337;DHT22;14992;50.844;4.418;2023-07-24T02:40:53;19.50;99.90
22337;DHT22;14992;50.844;4.418;2023-07-24T02:43:22;19.50;99.90
22337;DHT22;14992;50.844;4.418;2023-07-24T02:45:50;19.50;99.90
22337;DHT22;14992;50.844;4.418;2023-07-24T02:48:21;19.60;99.90
22337;DHT22;14992;50.844;4.418;2023-07-24T02:50:52;19.60;99.90
22337;DHT22;14992;50.844;4.418;2023-07-24T02:53:21;19.50;99.90
22337;DHT22;14992;50.844;4.418;2023-07-24T02:55:50;19.50;99.90
22337;DHT22;14992;50.844;4.418;2023-07-24T02:58:18;19.40;99.90
22337;DHT22;14992;50.844;4.418;2023-07-24T03:00:47;19.40;99.90
22337;DHT22;14992;50.844;4.418;2023-07-24T03:03:16;19.30;99.90
22337;DHT22;14992;50.844;4.418;2023-07-24T03:05:47;19.30;99.90
22337;DHT22;14992;50.844;4.418;2023-07-24T03:08:16;19.20;99.90
22337;DHT22;14992;50.844;4.418;2023-07-24T03:10:44;19.10;99.90
22337;DHT22;14992;50.844;4.418;2023-07-24T03:13:15;19.10;99.90
22337;DHT22;14992;50.844;4.418;2023-07-24T03:15:51;19.00;99.90
22337;DHT22;14992;50.844;4.418;2023-07-24T03:18:21;18.70;99.90
22337;DHT22;14992;50.844;4.418;2023-07-24T03:20:51;18.70;99.90
22337;DHT22;14992;50.844;4.418;2023-07-24T03:23:20;18.70;99.90
22337;DHT22;14992;50.844;4.418;2023-07-24T03:25:50;18.70;99.90
22337;DHT22;14992;50.844;4.418;2023-07-24T03:28:18;18.70;99.90
22337;DHT22;14992;50.844;4.418;2023-07-24T03:30:47;18.60;99.90
22337;DHT22;14992;50.844;4.418;2023-07-24T03:33:17;18.60;99.90
22337;DHT22;14992;50.844;4.418;2023-07-24T03:35:45;18.50;99.90
22337;DHT22;14992;50.844;4.418;2023-07-24T03:38:16;18.50;99.90
22337;DHT22;14992;50.844;4.418;2023-07-24T03:40:44;18.50;99.90
22337;DHT22;14992;50.844;4.418;2023-07-24T03:43:15;18.50;99.90
22337;DHT22;14992;50.844;4.418;2023-07-24T03:45:43;18.50;99.90
22337;DHT22;14992;50.844;4.418;2023-07-24T03:48:12;18.50;99.90
22337;DHT22;14992;50.844;4.418;2023-07-24T03:50:41;18.40;99.90
22337;DHT22;14992;50.844;4.418;2023-07-24T03:53:10;18.40;99.90
22337;DHT22;14992;50.844;4.418;2023-07-24T03:55:40;18.40;99.90
22337;DHT22;14992;50.844;4.418;2023-07-24T03:58:09;18.40;99.90
22337;DHT22;14992;50.844;4.418;2023-07-24T04:00:38;18.40;99.90
22337;DHT22;14992;50.844;4.418;2023-07-24T04:03:09;18.30;99.90
22337;DHT22;14992;50.844;4.418;2023-07-24T04:05:38;18.30;99.90
22337;DHT22;14992;50.844;4.418;2023-07-24T04:08:07;18.40;99.90
22337;DHT22;14992;50.844;4.418;2023-07-24T04:10:36;18.30;99.90
22337;DHT22;14992;50.844;4.418;2023-07-24T04:13:06;18.30;99.90
22337;DHT22;14992;50.844;4.418;2023-07-24T04:15:35;18.40;99.90
22337;DHT22;14992;50.844;4.418;2023-07-24T04:18:03;18.40;99.90
22337;DHT22;14992;50.844;4.418;2023-07-24T04:20:32;18.50;99.90
22337;DHT22;14992;50.844;4.418;2023-07-24T04:23:01;18.40;99.90
22337;DHT22;14992;50.844;4.418;2023-07-24T04:25:30;18.40;99.90
22337;DHT22;14992;50.844;4.418;2023-07-24T04:27:59;18.40;99.90
22337;DHT22;14992;50.844;4.418;2023-07-24T04:30:29;18.40;99.90
22337;DHT22;14992;50.844;4.418;2023-07-24T04:32:58;18.50;99.90
22337;DHT22;14992;50.844;4.418;2023-07-24T04:35:27;18.50;99.90
22337;DHT22;14992;50.844;4.418;2023-07-24T04:37:56;18.50;99.90
22337;DHT22;14992;50.844;4.418;2023-07-24T04:40:25;18.50;99.90
22337;DHT22;14992;50.844;4.418;2023-07-24T04:42:54;18.40;99.90
22337;DHT22;14992;50.844;4.418;2023-07-24T04:45:22;18.50;99.90
22337;DHT22;14992;50.844;4.418;2023-07-24T04:47:53;18.50;99.90
22337;DHT22;14992;50.844;4.418;2023-07-24T04:50:21;18.50;99.90
22337;DHT22;14992;50.844;4.418;2023-07-24T04:52:50;18.60;99.90
22337;DHT22;14992;50.844;4.418;2023-07-24T04:55:19;18.50;99.90
22337;DHT22;14992;50.844;4.418;2023-07-24T04:57:48;18.60;99.90
22337;DHT22;14992;50.844;4.418;2023-07-24T05:00:17;18.60;99.90
22337;DHT22;14992;50.844;4.418;2023-07-24T05:02:46;18.60;99.90
22337;DHT22;14992;50.844;4.418;2023-07-24T05:05:16;18.60;99.90
22337;DHT22;14992;50.844;4.418;2023-07-24T05:07:45;18.60;99.90
22337;DHT22;14992;50.844;4.418;2023-07-24T05:10:14;18.70;99.90
22337;DHT22;14992;50.844;4.418;2023-07-24T05:12:43;18.70;99.90
22337;DHT22;14992;50.844;4.418;2023-07-24T05:15:13;18.60;99.90
22337;DHT22;14992;50.844;4.418;2023-07-24T05:17:44;18.60;99.90
22337;DHT22;14992;50.844;4.418;2023-07-24T05:20:13;18.70;99.90
22337;DHT22;14992;50.844;4.418;2023-07-24T05:22:43;18.70;99.90
22337;DHT22;14992;50.844;4.418;2023-07-24T05:25:12;18.50;99.90
22337;DHT22;14992;50.844;4.418;2023-07-24T05:27:41;18.50;99.90
22337;DHT22;14992;50.844;4.418;2023-07-24T05:30:15;18.50;99.90
22337;DHT22;14992;50.844;4.418;2023-07-24T05:32:44;18.50;99.90
22337;DHT22;14992;50.844;4.418;2023-07-24T05:35:13;18.40;99.90
22337;DHT22;14992;50.844;4.418;2023-07-24T05:37:43;18.40;99.90
22337;DHT22;14992;50.844;4.418;2023-07-24T05:40:12;18.60;99.90
22337;DHT22;14992;50.844;4.418;2023-07-24T05:42:41;18.70;99.90
22337;DHT22;14992;50.844;4.418;2023-07-24T05:45:11;18.80;99.90
22337;DHT22;14992;50.844;4.418;2023-07-24T05:47:42;18.80;99.90
22337;DHT22;14992;50.844;4.418;2023-07-24T05:50:11;18.90;99.90
22337;DHT22;14992;50.844;4.418;2023-07-24T05:52:42;18.90;99.90
22337;DHT22;14992;50.844;4.418;2023-07-24T05:55:11;18.90;99.90
22337;DHT22;14992;50.844;4.418;2023-07-24T05:57:44;18.90;99.90
22337;DHT22;14992;50.844;4.418;2023-07-24T06:00:16;18.80;99.90
22337;DHT22;14992;50.844;4.418;2023-07-24T06:02:45;18.90;99.90
22337;DHT22;14992;50.844;4.418;2023-07-24T06:05:14;19.00;99.90
22337;DHT22;14992;50.844;4.418;2023-07-24T06:07:44;19.10;99.90
22337;DHT22;14992;50.844;4.418;2023-07-24T06:10:13;19.20;99.90
22337;DHT22;14992;50.844;4.418;2023-07-24T06:12:42;19.20;99.90
22337;DHT22;14992;50.844;4.418;2023-07-24T06:15:11;19.30;99.90
22337;DHT22;14992;50.844;4.418;2023-07-24T06:17:40;19.20;99.90
22337;DHT22;14992;50.844;4.418;2023-07-24T06:20:10;19.00;99.90
22337;DHT22;14992;50.844;4.418;2023-07-24T06:22:39;19.00;99.90
22337;DHT22;14992;50.844;4.418;2023-07-24T06:25:10;19.00;99.90
22337;DHT22;14992;50.844;4.418;2023-07-24T06:27:39;19.10;99.90
22337;DHT22;14992;50.844;4.418;2023-07-24T06:30:09;19.30;99.90
22337;DHT22;14992;50.844;4.418;2023-07-24T06:32:42;19.40;99.90
22337;DHT22;14992;50.844;4.418;2023-07-24T06:35:11;19.60;99.90
22337;DHT22;14992;50.844;4.418;2023-07-24T06:37:41;19.60;99.90
22337;DHT22;14992;50.844;4.418;2023-07-24T06:40:12;19.70;99.90
22337;DHT22;14992;50.844;4.418;2023-07-24T06:42:41;19.60;99.90
22337;DHT22;14992;50.844;4.418;2023-07-24T06:45:10;19.80;99.90
22337;DHT22;14992;50.844;4.418;2023-07-24T06:47:40;19.80;99.90
22337;DHT22;14992;50.844;4.418;2023-07-24T06:50:10;19.80;99.90
22337;DHT22;14992;50.844;4.418;2023-07-24T06:52:39;19.70;99.90
22337;DHT22;14992;50.844;4.418;2023-07-24T06:55:09;19.60;99.90
22337;DHT22;14992;50.844;4.418;2023-07-24T06:57:40;19.70;99.90
22337;DHT22;14992;50.844;4.418;2023-07-24T07:00:10;19.70;99.90
22337;DHT22;14992;50.844;4.418;2023-07-24T07:02:40;19.80;99.90
22337;DHT22;14992;50.844;4.418;2023-07-24T07:05:09;20.00;99.90
22337;DHT22;14992;50.844;4.418;2023-07-24T07:07:39;20.20;99.90
22337;DHT22;14992;50.844;4.418;2023-07-24T07:10:09;20.40;99.90
22337;DHT22;14992;50.844;4.418;2023-07-24T07:12:40;20.50;99.90
22337;DHT22;14992;50.844;4.418;2023-07-24T07:15:10;20.50;99.90
22337;DHT22;14992;50.844;4.418;2023-07-24T07:17:40;20.50;99.90
22337;DHT22;14992;50.844;4.418;2023-07-24T07:20:10;20.60;99.90
22337;DHT22;14992;50.844;4.418;2023-07-24T07:22:39;20.70;99.90
22337;DHT22;14992;50.844;4.418;2023-07-24T07:25:09;20.80;99.90
22337;DHT22;14992;50.844;4.418;2023-07-24T07:27:40;20.70;99.90
22337;DHT22;14992;50.844;4.418;2023-07-24T07:30:10;20.60;99.90
22337;DHT22;14992;50.844;4.418;2023-07-24T07:32:40;20.60;99.90
22337;DHT22;14992;50.844;4.418;2023-07-24T07:35:09;20.50;99.90
22337;DHT22;14992;50.844;4.418;2023-07-24T07:37:39;20.60;99.90
22337;DHT22;14992;50.844;4.418;2023-07-24T07:40:09;20.60;99.90
22337;DHT22;14992;50.844;4.418;2023-07-24T07:42:40;20.70;99.90
22337;DHT22;14992;50.844;4.418;2023-07-24T07:45:14;20.60;99.90
22337;DHT22;14992;50.844;4.418;2023-07-24T07:47:46;20.70;99.90
22337;DHT22;14992;50.844;4.418;2023-07-24T07:50:15;20.80;99.90
22337;DHT22;14992;50.844;4.418;2023-07-24T07:52:44;20.80;99.90
22337;DHT22;14992;50.844;4.418;2023-07-24T07:55:13;20.90;99.90
22337;DHT22;14992;50.844;4.418;2023-07-24T07:57:43;21.10;99.90
22337;DHT22;14992;50.844;4.418;2023-07-24T08:00:13;21.30;99.90
22337;DHT22;14992;50.844;4.418;2023-07-24T08:02:42;21.40;99.90
22337;DHT22;14992;50.844;4.418;2023-07-24T08:05:12;21.60;99.90
22337;DHT22;14992;50.844;4.418;2023-07-24T08:07:47;21.80;99.90
22337;DHT22;14992;50.844;4.418;2023-07-24T08:10:18;21.90;99.90
22337;DHT22;14992;50.844;4.418;2023-07-24T08:12:50;21.90;99.90
22337;DHT22;14992;50.844;4.418;2023-07-24T08:15:20;21.70;99.90
22337;DHT22;14992;50.844;4.418;2023-07-24T08:17:49;21.50;99.90
22337;DHT22;14992;50.844;4.418;2023-07-24T08:20:18;21.20;99.90
22337;DHT22;14992;50.844;4.418;2023-07-24T08:22:47;21.20;99.90
22337;DHT22;14992;50.844;4.418;2023-07-24T08:25:16;21.10;99.90
22337;DHT22;14992;50.844;4.418;2023-07-24T08:27:45;20.90;99.90
22337;DHT22;14992;50.844;4.418;2023-07-24T08:30:34;20.70;99.90
22337;DHT22;14992;50.844;4.418;2023-07-24T08:33:03;20.60;99.90
22337;DHT22;14992;50.844;4.418;2023-07-24T08:35:33;20.50;99.90
22337;DHT22;14992;50.844;4.418;2023-07-24T08:38:01;20.30;99.90
22337;DHT22;14992;50.844;4.418;2023-07-24T08:40:30;20.30;99.90
22337;DHT22;14992;50.844;4.418;2023-07-24T08:42:59;20.30;99.90
22337;DHT22;14992;50.844;4.418;2023-07-24T08:45:30;20.30;99.90
22337;DHT22;14992;50.844;4.418;2023-07-24T08:48:00;20.50;99.90
22337;DHT22;14992;50.844;4.418;2023-07-24T08:50:30;20.50;99.90
22337;DHT22;14992;50.844;4.418;2023-07-24T08:53:00;20.40;99.90
22337;DHT22;14992;50.844;4.418;2023-07-24T08:55:30;20.30;99.90
22337;DHT22;14992;50.844;4.418;2023-07-24T08:57:59;20.40;99.90
22337;DHT22;14992;50.844;4.418;2023-07-24T09:00:28;20.30;99.90
22337;DHT22;14992;50.844;4.418;2023-07-24T09:02:57;20.20;99.90
22337;DHT22;14992;50.844;4.418;2023-07-24T09:05:27;20.10;99.90
22337;DHT22;14992;50.844;4.418;2023-07-24T09:07:57;20.00;99.90
22337;DHT22;14992;50.844;4.418;2023-07-24T09:10:26;20.00;99.90
22337;DHT22;14992;50.844;4.418;2023-07-24T09:12:55;19.90;99.90
22337;DHT22;14992;50.844;4.418;2023-07-24T09:15:24;19.90;99.90
22337;DHT22;14992;50.844;4.418;2023-07-24T09:17:53;19.80;99.90
22337;DHT22;14992;50.844;4.418;2023-07-24T09:20:22;19.80;99.90
22337;DHT22;14992;50.844;4.418;2023-07-24T09:22:55;19.90;99.90
22337;DHT22;14992;50.844;4.418;2023-07-24T09:25:43;19.90;99.90
22337;DHT22;14992;50.844;4.418;2023-07-24T09:28:13;19.90;99.90
22337;DHT22;14992;50.844;4.418;2023-07-24T09:30:52;19.80;99.90
22337;DHT22;14992;50.844;4.418;2023-07-24T09:33:22;19.90;99.90
22337;DHT22;14992;50.844;4.418;2023-07-24T09:35:57;20.00;99.90
22337;DHT22;14992;50.844;4.418;2023-07-24T09:38:28;19.70;99.90
22337;DHT22;14992;50.844;4.418;2023-07-24T09:40:57;19.70;99.90
22337;DHT22;14992;50.844;4.418;2023-07-24T09:43:27;19.80;99.90
22337;DHT22;14992;50.844;4.418;2023-07-24T09:46:09;19.70;99.90
22337;DHT22;14992;50.844;4.418;2023-07-24T09:48:55;19.70;99.90
22337;DHT22;14992;50.844;4.418;2023-07-24T09:51:29;19.60;99.90
22337;DHT22;14992;50.844;4.418;2023-07-24T09:54:06;19.60;99.90
22337;DHT22;14992;50.844;4.418;2023-07-24T09:56:38;19.60;99.90
22337;DHT22;14992;50.844;4.418;2023-07-24T09:59:21;19.60;99.90
22337;DHT22;14992;50.844;4.418;2023-07-24T10:01:50;19.50;99.90
22337;DHT22;14992;50.844;4.418;2023-07-24T10:04:20;19.50;99.90
22337;DHT22;14992;50.844;4.418;2023-07-24T10:06:52;19.60;99.90
22337;DHT22;14992;50.844;4.418;2023-07-24T10:09:22;19.50;99.90
22337;DHT22;14992;50.844;4.418;2023-07-24T10:11:57;19.60;99.90
22337;DHT22;14992;50.844;4.418;2023-07-24T10:14:26;19.70;99.90
22337;DHT22;14992;50.844;4.418;2023-07-24T10:16:57;19.80;99.90
22337;DHT22;14992;50.844;4.418;2023-07-24T10:19:35;19.80;99.90
22337;DHT22;14992;50.844;4.418;2023-07-24T10:22:05;19.90;99.90
22337;DHT22;14992;50.844;4.418;2023-07-24T10:24:36;20.10;99.90
22337;DHT22;14992;50.844;4.418;2023-07-24T10:27:09;20.40;99.90
22337;DHT22;14992;50.844;4.418;2023-07-24T10:29:38;20.60;99.90
22337;DHT22;14992;50.844;4.418;2023-07-24T10:32:17;20.90;99.90
22337;DHT22;14992;50.844;4.418;2023-07-24T10:34:56;21.40;99.90
22337;DHT22;14992;50.844;4.418;2023-07-24T10:37:32;21.60;99.90
22337;DHT22;14992;50.844;4.418;2023-07-24T10:40:05;21.80;99.90
22337;DHT22;14992;50.844;4.418;2023-07-24T10:42:36;21.80;99.90
22337;DHT22;14992;50.844;4.418;2023-07-24T10:45:06;21.80;99.90
22337;DHT22;14992;50.844;4.418;2023-07-24T10:47:37;21.80;99.90
22337;DHT22;14992;50.844;4.418;2023-07-24T10:50:07;21.80;99.90
22337;DHT22;14992;50.844;4.418;2023-07-24T10:52:38;22.00;99.90
22337;DHT22;14992;50.844;4.418;2023-07-24T10:55:09;22.10;99.90
22337;DHT22;14992;50.844;4.418;2023-07-24T10:57:38;22.30;99.90
22337;DHT22;14992;50.844;4.418;2023-07-24T11:00:09;22.10;99.90
22337;DHT22;14992;50.844;4.418;2023-07-24T11:02:38;22.10;99.90
22337;DHT22;14992;50.844;4.418;2023-07-24T11:05:08;22.10;99.90
22337;DHT22;14992;50.844;4.418;2023-07-24T11:07:38;21.90;99.90
22337;DHT22;14992;50.844;4.418;2023-07-24T11:10:16;21.60;99.90
22337;DHT22;14992;50.844;4.418;2023-07-24T11:12:48;21.60;99.90
22337;DHT22;14992;50.844;4.418;2023-07-24T11:15:24;21.60;99.90
22337;DHT22;14992;50.844;4.418;2023-07-24T11:17:54;21.60;99.90
22337;DHT22;14992;50.844;4.418;2023-07-24T11:20:23;22.00;99.90
22337;DHT22;14992;50.844;4.418;2023-07-24T11:22:52;22.20;99.90
22337;DHT22;14992;50.844;4.418;2023-07-24T11:25:22;21.80;99.90
22337;DHT22;14992;50.844;4.418;2023-07-24T11:27:52;21.50;99.90
22337;DHT22;14992;50.844;4.418;2023-07-24T11:30:21;21.30;99.90
22337;DHT22;14992;50.844;4.418;2023-07-24T11:32:51;21.20;99.90
22337;DHT22;14992;50.844;4.418;2023-07-24T11:35:20;21.30;99.90
22337;DHT22;14992;50.844;4.418;2023-07-24T11:37:50;21.40;99.90
22337;DHT22;14992;50.844;4.418;2023-07-24T11:40:19;21.80;99.90
22337;DHT22;14992;50.844;4.418;2023-07-24T11:42:50;22.10;99.90
22337;DHT22;14992;50.844;4.418;2023-07-24T11:45:19;22.20;99.90
22337;DHT22;14992;50.844;4.418;2023-07-24T11:47:49;22.40;99.90
22337;DHT22;14992;50.844;4.418;2023-07-24T11:50:18;22.60;99.90
22337;DHT22;14992;50.844;4.418;2023-07-24T11:52:48;22.60;99.90
22337;DHT22;14992;50.844;4.418;2023-07-24T11:55:18;22.50;99.90
22337;DHT22;14992;50.844;4.418;2023-07-24T11:57:58;22.10;99.90
22337;DHT22;14992;50.844;4.418;2023-07-24T12:00:28;22.20;99.90
22337;DHT22;14992;50.844;4.418;2023-07-24T12:02:59;22.00;99.90
22337;DHT22;14992;50.844;4.418;2023-07-24T12:05:29;22.20;99.90
22337;DHT22;14992;50.844;4.418;2023-07-24T12:07:58;22.50;99.90
22337;DHT22;14992;50.844;4.418;2023-07-24T12:10:31;22.80;99.90
22337;DHT22;14992;50.844;4.418;2023-07-24T12:13:01;23.00;99.90
22337;DHT22;14992;50.844;4.418;2023-07-24T12:15:30;23.10;99.90
22337;DHT22;14992;50.844;4.418;2023-07-24T12:18:00;23.00;99.90
22337;DHT22;14992;50.844;4.418;2023-07-24T12:20:31;22.90;99.90
22337;DHT22;14992;50.844;4.418;2023-07-24T12:23:01;22.80;99.90
22337;DHT22;14992;50.844;4.418;2023-07-24T12:25:30;22.60;99.90
22337;DHT22;14992;50.844;4.418;2023-07-24T12:28:01;22.90;99.90
22337;DHT22;14992;50.844;4.418;2023-07-24T12:30:30;23.20;99.90
22337;DHT22;14992;50.844;4.418;2023-07-24T12:32:59;23.10;99.90
22337;DHT22;14992;50.844;4.418;2023-07-24T12:35:28;23.10;99.90
22337;DHT22;14992;50.844;4.418;2023-07-24T12:37:56;23.30;99.90
22337;DHT22;14992;50.844;4.418;2023-07-24T12:40:26;23.10;99.90
22337;DHT22;14992;50.844;4.418;2023-07-24T12:42:55;23.10;99.90
22337;DHT22;14992;50.844;4.418;2023-07-24T12:45:25;23.00;99.90
22337;DHT22;14992;50.844;4.418;2023-07-24T12:47:54;23.30;99.90
22337;DHT22;14992;50.844;4.418;2023-07-24T12:50:24;23.20;99.90
22337;DHT22;14992;50.844;4.418;2023-07-24T12:52:52;23.30;99.90
22337;DHT22;14992;50.844;4.418;2023-07-24T12:55:22;23.30;99.90
22337;DHT22;14992;50.844;4.418;2023-07-24T12:57:51;23.20;99.90
22337;DHT22;14992;50.844;4.418;2023-07-24T13:00:19;23.10;99.90
22337;DHT22;14992;50.844;4.418;2023-07-24T13:02:50;23.10;99.90
22337;DHT22;14992;50.844;4.418;2023-07-24T13:05:19;23.20;99.90
22337;DHT22;14992;50.844;4.418;2023-07-24T13:07:48;23.30;99.90
22337;DHT22;14992;50.844;4.418;2023-07-24T13:10:16;23.30;99.90
22337;DHT22;14992;50.844;4.418;2023-07-24T13:12:45;23.30;99.90
22337;DHT22;14992;50.844;4.418;2023-07-24T13:15:15;23.30;99.90
22337;DHT22;14992;50.844;4.418;2023-07-24T13:17:47;23.10;99.90
22337;DHT22;14992;50.844;4.418;2023-07-24T13:20:18;23.10;99.90
22337;DHT22;14992;50.844;4.418;2023-07-24T13:22:47;22.80;99.90
22337;DHT22;14992;50.844;4.418;2023-07-24T13:25:16;22.60;99.90
22337;DHT22;14992;50.844;4.418;2023-07-24T13:27:45;22.60;99.90
22337;DHT22;14992;50.844;4.418;2023-07-24T13:30:14;22.60;99.90
22337;DHT22;14992;50.844;4.418;2023-07-24T13:32:43;22.70;99.90
22337;DHT22;14992;50.844;4.418;2023-07-24T13:35:12;22.90;99.90
22337;DHT22;14992;50.844;4.418;2023-07-24T13:37:44;23.00;99.90
22337;DHT22;14992;50.844;4.418;2023-07-24T13:40:13;23.10;99.90
22337;DHT22;14992;50.844;4.418;2023-07-24T13:42:42;23.10;99.90
22337;DHT22;14992;50.844;4.418;2023-07-24T13:45:11;22.80;99.90
22337;DHT22;14992;50.844;4.418;2023-07-24T13:47:40;22.80;99.90
22337;DHT22;14992;50.844;4.418;2023-07-24T13:50:09;22.70;99.90
22337;DHT22;14992;50.844;4.418;2023-07-24T13:52:39;23.00;99.90
22337;DHT22;14992;50.844;4.418;2023-07-24T13:55:10;23.00;99.90
22337;DHT22;14992;50.844;4.418;2023-07-24T13:57:39;23.20;99.90
22337;DHT22;14992;50.844;4.418;2023-07-24T14:00:10;23.30;99.90
22337;DHT22;14992;50.844;4.418;2023-07-24T14:02:41;23.10;99.90
22337;DHT22;14992;50.844;4.418;2023-07-24T14:05:11;23.00;99.90
22337;DHT22;14992;50.844;4.418;2023-07-24T14:07:39;22.80;99.90
22337;DHT22;14992;50.844;4.418;2023-07-24T14:10:11;22.40;99.90
22337;DHT22;14992;50.844;4.418;2023-07-24T14:12:39;22.50;99.90
22337;DHT22;14992;50.844;4.418;2023-07-24T14:15:10;22.60;99.90
22337;DHT22;14992;50.844;4.418;2023-07-24T14:17:40;22.80;99.90
22337;DHT22;14992;50.844;4.418;2023-07-24T14:20:10;22.80;99.90
22337;DHT22;14992;50.844;4.418;2023-07-24T14:22:39;22.70;99.90
22337;DHT22;14992;50.844;4.418;2023-07-24T14:25:10;22.60;99.90
22337;DHT22;14992;50.844;4.418;2023-07-24T14:27:40;22.60;99.90
22337;DHT22;14992;50.844;4.418;2023-07-24T14:30:10;22.70;99.90
22337;DHT22;14992;50.844;4.418;2023-07-24T14:32:39;22.70;99.90
22337;DHT22;14992;50.844;4.418;2023-07-24T14:35:09;22.70;99.90
22337;DHT22;14992;50.844;4.418;2023-07-24T14:37:38;22.90;99.90
22337;DHT22;14992;50.844;4.418;2023-07-24T14:40:12;23.20;99.90
22337;DHT22;14992;50.844;4.418;2023-07-24T14:42:41;23.30;99.90
22337;DHT22;14992;50.844;4.418;2023-07-24T14:45:11;23.20;99.90
22337;DHT22;14992;50.844;4.418;2023-07-24T14:47:40;23.30;99.90
22337;DHT22;14992;50.844;4.418;2023-07-24T14:50:10;23.50;99.90
22337;DHT22;14992;50.844;4.418;2023-07-24T14:52:40;23.80;99.90
22337;DHT22;14992;50.844;4.418;2023-07-24T14:55:09;23.60;99.90
22337;DHT22;14992;50.844;4.418;2023-07-24T14:57:40;23.00;99.90
22337;DHT22;14992;50.844;4.418;2023-07-24T15:00:10;22.50;99.90
22337;DHT22;14992;50.844;4.418;2023-07-24T15:02:41;22.10;99.90
22337;DHT22;14992;50.844;4.418;2023-07-24T15:05:10;21.70;99.90
22337;DHT22;14992;50.844;4.418;2023-07-24T15:07:40;21.60;99.90
22337;DHT22;14992;50.844;4.418;2023-07-24T15:10:12;21.20;99.90
22337;DHT22;14992;50.844;4.418;2023-07-24T15:12:45;20.60;99.90
22337;DHT22;14992;50.844;4.418;2023-07-24T15:15:14;19.80;99.90
22337;DHT22;14992;50.844;4.418;2023-07-24T15:17:43;19.30;99.90
22337;DHT22;14992;50.844;4.418;2023-07-24T15:20:12;18.90;99.90
22337;DHT22;14992;50.844;4.418;2023-07-24T15:22:42;18.70;99.90
22337;DHT22;14992;50.844;4.418;2023-07-24T15:25:11;18.50;99.90
22337;DHT22;14992;50.844;4.418;2023-07-24T15:27:41;18.40;99.90
22337;DHT22;14992;50.844;4.418;2023-07-24T15:30:13;18.20;99.90
22337;DHT22;14992;50.844;4.418;2023-07-24T15:32:45;18.20;99.90
22337;DHT22;14992;50.844;4.418;2023-07-24T15:35:14;18.10;99.90
22337;DHT22;14992;50.844;4.418;2023-07-24T15:37:43;18.20;99.90
22337;DHT22;14992;50.844;4.418;2023-07-24T15:40:12;18.30;99.90
22337;DHT22;14992;50.844;4.418;2023-07-24T15:42:45;18.40;99.90
22337;DHT22;14992;50.844;4.418;2023-07-24T15:45:17;18.50;99.90
22337;DHT22;14992;50.844;4.418;2023-07-24T15:47:51;18.60;99.90